메인 페이지
METAR-TAF:

METAR-TAF

공항 :

애틀랜타, 조지아, 미국

하츠필드 잭슨 애틀랜타 국제공항

위도: 33-38-25N, 경도: 084-25-37W, 고도: 313m

현재 날씨관측

예보는 1 시간 2분 전, 07:52시(UTC)에 발표되었습니다.
서북서5kt
온도 8°C
습도 71%
기압 1024 hPa
시정: 16.1km
고도 18000ft 상공 구름 조금
고도 25000ft 상공 구름 조금

METAR: KATL 210752Z 29005KT 10SM FEW180 FEW250 08/03 A3024 RMK AO2 SLP239 T00780028 $

시각: 03:54 (08:54 UTC)

예보

예보는 1 시간 17분 전, 07:37시(UTC)에 발표되었습니다.
예보 대상 시간: 21일 08시부터 22일 12시까지 (UTC)
5kt
시정: 10km
고도 18000ft 상공 구름 보통
고도 25000ft 상공 구름 보통
21일 1200시부터 (UTC)
여러 방향의 바람 3kt
시정: 10km
고도 18000ft 상공 구름 조금
21일 1800시부터 (UTC)
5kt
시정: 10km
고도 6000ft 상공 구름 조금
고도 25000ft 상공 구름 보통
22일 0000시부터 (UTC)
남동4kt
시정: 10km
고도 25000ft 상공 구름 보통

TAF: KATL 210737Z 2108/2212 28005KT P6SM SCT180 SCT250 FM211200 VRB03KT P6SM FEW180 FM211800 17005KT P6SM FEW060 SCT250 FM220000 14004KT P6SM SCT250

4,000개 이상의 공항 관측 자료 및 예보 (METAR 및 TAF 보고).

지도상에서 검색 가능한 기상관측소가 노란 점과 빨간 점으로 표시되어 있습니다.

기상관측소 명을 보려면 표시 위로 마우스를 이동하세요.

날씨 관측과 예보를 보려면 클릭하세요.

지도 변경 : 확대하려면 엑스 표시가 있는 녹색 버튼, 축소하려면 빼기 표시가 있는 녹색 버튼, 다음 페이지의 지도를 보려면 녹색 화살표를 클릭하세요.


METAR-TAF: